KBCE/BCE METAR and TAF weather

Enter ICAO airport designator
Station Type Date Time Source
KBCE METAR 2021/09/27 06:53 UTC NOAA

KBCE 270653Z AUTO 24004KT 10SM CLR 05/01 A3027 RMK AO2 SLP154 T00500011 402000033


Station Type Date Time Source
KBCE Decoded METAR 2021/09/27 06:53 UTC NOAA

BRYCE CANYON AIRPORT, UT, United States (KBCE) 37-42N 112-09W 2312M
Sep 27, 2021 - 02:53 AM EDT / 2021.09.27 0653 UTC
Wind: from the WSW (240 degrees) at 5 MPH (4 KT):0
Visibility: 10 mile(s):0
Sky conditions: clear
Temperature: 41.0 F (5.0 C)
Dew Point: 34.0 F (1.1 C)
Relative Humidity: 75%
Pressure (altimeter): 30.27 in. Hg (1025 hPa)
ob: KBCE 270653Z AUTO 24004KT 10SM CLR 05/01 A3027 RMK AO2 SLP154 T00500011 402000033
cycle: 7

Station Type Date Time Source
KBCE TAF 2021/09/27 06:22 UTC NOAA

TAF KBCE 270520Z 2706/2806 26005KT P6SM FEW120
FM271900 15007KT P6SM SCT120
FM272100 25011KT P6SM VCTS BKN080CB OVC120
FM280000 28005KT P6SM BKN120

Example: see airport list